sensor_id;sensor_type;location;lat;lon;timestamp;P1;durP1;ratioP1;P2;durP2;ratioP2
58097;SDS011;43913;55.940;37.504;2023-02-16T00:00:15;1.38;;;1.20;;
58097;SDS011;43913;55.940;37.504;2023-02-16T00:02:45;1.35;;;1.25;;
58097;SDS011;43913;55.940;37.504;2023-02-16T00:05:17;1.30;;;1.20;;
58097;SDS011;43913;55.940;37.504;2023-02-16T00:07:48;1.92;;;1.50;;
58097;SDS011;43913;55.940;37.504;2023-02-16T00:10:13;1.50;;;1.35;;
58097;SDS011;43913;55.940;37.504;2023-02-16T00:12:39;1.52;;;1.33;;
58097;SDS011;43913;55.940;37.504;2023-02-16T00:15:23;1.73;;;1.60;;
58097;SDS011;43913;55.940;37.504;2023-02-16T00:17:49;1.73;;;1.40;;
58097;SDS011;43913;55.940;37.504;2023-02-16T00:20:15;2.75;;;2.00;;
58097;SDS011;43913;55.940;37.504;2023-02-16T00:22:41;2.45;;;1.95;;
58097;SDS011;43913;55.940;37.504;2023-02-16T00:25:07;2.08;;;1.55;;
58097;SDS011;43913;55.940;37.504;2023-02-16T00:27:33;1.70;;;1.60;;
58097;SDS011;43913;55.940;37.504;2023-02-16T00:29:59;1.50;;;1.40;;
58097;SDS011;43913;55.940;37.504;2023-02-16T00:32:25;2.95;;;1.98;;
58097;SDS011;43913;55.940;37.504;2023-02-16T00:34:51;2.97;;;2.40;;
58097;SDS011;43913;55.940;37.504;2023-02-16T00:37:17;3.10;;;1.70;;
58097;SDS011;43913;55.940;37.504;2023-02-16T00:39:43;2.70;;;2.35;;
58097;SDS011;43913;55.940;37.504;2023-02-16T00:44:48;2.78;;;1.65;;
58097;SDS011;43913;55.940;37.504;2023-02-16T00:47:18;3.00;;;1.77;;
58097;SDS011;43913;55.940;37.504;2023-02-16T00:49:49;2.38;;;1.77;;
58097;SDS011;43913;55.940;37.504;2023-02-16T00:52:22;2.40;;;1.73;;
58097;SDS011;43913;55.940;37.504;2023-02-16T00:54:55;2.28;;;1.80;;
58097;SDS011;43913;55.940;37.504;2023-02-16T00:57:22;2.00;;;1.80;;
58097;SDS011;43913;55.940;37.504;2023-02-16T00:59:49;3.45;;;2.10;;
58097;SDS011;43913;55.940;37.504;2023-02-16T01:02:23;2.20;;;2.00;;
58097;SDS011;43913;55.940;37.504;2023-02-16T01:04:48;3.33;;;1.80;;
58097;SDS011;43913;55.940;37.504;2023-02-16T01:07:14;3.20;;;2.08;;
58097;SDS011;43913;55.940;37.504;2023-02-16T01:09:59;2.33;;;1.80;;
58097;SDS011;43913;55.940;37.504;2023-02-16T01:12:43;3.67;;;2.05;;
58097;SDS011;43913;55.940;37.504;2023-02-16T01:15:12;7.35;;;2.10;;
58097;SDS011;43913;55.940;37.504;2023-02-16T01:17:39;2.97;;;2.63;;
58097;SDS011;43913;55.940;37.504;2023-02-16T01:20:22;1.77;;;1.65;;
58097;SDS011;43913;55.940;37.504;2023-02-16T01:22:48;1.85;;;1.58;;
58097;SDS011;43913;55.940;37.504;2023-02-16T01:25:14;2.47;;;2.00;;
58097;SDS011;43913;55.940;37.504;2023-02-16T01:27:40;5.68;;;2.60;;
58097;SDS011;43913;55.940;37.504;2023-02-16T01:30:09;3.42;;;2.08;;
58097;SDS011;43913;55.940;37.504;2023-02-16T01:32:39;2.00;;;1.80;;
58097;SDS011;43913;55.940;37.504;2023-02-16T01:35:06;2.67;;;1.60;;
58097;SDS011;43913;55.940;37.504;2023-02-16T01:37:32;2.47;;;2.20;;
58097;SDS011;43913;55.940;37.504;2023-02-16T01:39:58;1.90;;;1.63;;
58097;SDS011;43913;55.940;37.504;2023-02-16T01:42:34;3.10;;;1.65;;
58097;SDS011;43913;55.940;37.504;2023-02-16T01:45:37;2.17;;;1.90;;
58097;SDS011;43913;55.940;37.504;2023-02-16T01:48:05;2.25;;;2.05;;
58097;SDS011;43913;55.940;37.504;2023-02-16T01:50:41;2.05;;;1.80;;
58097;SDS011;43913;55.940;37.504;2023-02-16T01:53:31;2.20;;;1.50;;
58097;SDS011;43913;55.940;37.504;2023-02-16T01:56:03;1.60;;;1.50;;
58097;SDS011;43913;55.940;37.504;2023-02-16T01:58:39;2.00;;;1.80;;
58097;SDS011;43913;55.940;37.504;2023-02-16T02:03:58;3.47;;;1.73;;
58097;SDS011;43913;55.940;37.504;2023-02-16T02:06:42;1.80;;;1.70;;
58097;SDS011;43913;55.940;37.504;2023-02-16T02:09:12;3.03;;;1.90;;
58097;SDS011;43913;55.940;37.504;2023-02-16T02:11:48;4.70;;;1.88;;
58097;SDS011;43913;55.940;37.504;2023-02-16T02:14:37;1.80;;;1.60;;
58097;SDS011;43913;55.940;37.504;2023-02-16T02:17:11;1.77;;;1.67;;
58097;SDS011;43913;55.940;37.504;2023-02-16T02:23:14;2.22;;;1.90;;
58097;SDS011;43913;55.940;37.504;2023-02-16T02:28:02;2.30;;;1.95;;
58097;SDS011;43913;55.940;37.504;2023-02-16T02:30:46;2.85;;;1.80;;
58097;SDS011;43913;55.940;37.504;2023-02-16T02:41:43;2.30;;;2.08;;
58097;SDS011;43913;55.940;37.504;2023-02-16T02:44:38;2.33;;;2.00;;
58097;SDS011;43913;55.940;37.504;2023-02-16T02:47:06;1.83;;;1.63;;
58097;SDS011;43913;55.940;37.504;2023-02-16T02:49:32;2.03;;;1.77;;
58097;SDS011;43913;55.940;37.504;2023-02-16T02:51:58;2.28;;;1.98;;
58097;SDS011;43913;55.940;37.504;2023-02-16T02:54:28;3.28;;;2.42;;
58097;SDS011;43913;55.940;37.504;2023-02-16T03:00:06;1.92;;;1.80;;
58097;SDS011;43913;55.940;37.504;2023-02-16T03:02:53;2.30;;;1.50;;
58097;SDS011;43913;55.940;37.504;2023-02-16T03:05:21;2.30;;;2.10;;
58097;SDS011;43913;55.940;37.504;2023-02-16T03:07:48;3.28;;;2.20;;
58097;SDS011;43913;55.940;37.504;2023-02-16T03:10:21;1.70;;;1.60;;
58097;SDS011;43913;55.940;37.504;2023-02-16T03:13:11;5.35;;;2.65;;
58097;SDS011;43913;55.940;37.504;2023-02-16T03:15:39;2.05;;;1.83;;
58097;SDS011;43913;55.940;37.504;2023-02-16T03:18:06;3.22;;;2.00;;
58097;SDS011;43913;55.940;37.504;2023-02-16T03:20:51;2.50;;;2.08;;
58097;SDS011;43913;55.940;37.504;2023-02-16T03:23:36;3.25;;;2.00;;
58097;SDS011;43913;55.940;37.504;2023-02-16T03:29:06;2.85;;;2.20;;
58097;SDS011;43913;55.940;37.504;2023-02-16T03:31:50;2.35;;;2.10;;
58097;SDS011;43913;55.940;37.504;2023-02-16T03:34:18;2.08;;;1.85;;
58097;SDS011;43913;55.940;37.504;2023-02-16T03:36:46;2.22;;;2.03;;
58097;SDS011;43913;55.940;37.504;2023-02-16T03:39:13;3.25;;;2.42;;
58097;SDS011;43913;55.940;37.504;2023-02-16T03:41:41;3.83;;;2.17;;
58097;SDS011;43913;55.940;37.504;2023-02-16T03:44:10;3.40;;;2.00;;
58097;SDS011;43913;55.940;37.504;2023-02-16T03:46:36;2.53;;;2.05;;
58097;SDS011;43913;55.940;37.504;2023-02-16T03:49:01;3.30;;;2.45;;
58097;SDS011;43913;55.940;37.504;2023-02-16T03:51:27;2.67;;;2.40;;
58097;SDS011;43913;55.940;37.504;2023-02-16T03:53:53;3.85;;;3.15;;
58097;SDS011;43913;55.940;37.504;2023-02-16T03:56:18;2.90;;;2.15;;
58097;SDS011;43913;55.940;37.504;2023-02-16T03:58:44;1.95;;;1.80;;
58097;SDS011;43913;55.940;37.504;2023-02-16T04:01:10;2.15;;;1.95;;
58097;SDS011;43913;55.940;37.504;2023-02-16T04:03:36;4.35;;;2.40;;
58097;SDS011;43913;55.940;37.504;2023-02-16T04:06:01;3.42;;;2.10;;
58097;SDS011;43913;55.940;37.504;2023-02-16T04:08:27;2.00;;;1.60;;
58097;SDS011;43913;55.940;37.504;2023-02-16T04:10:53;2.63;;;2.08;;
58097;SDS011;43913;55.940;37.504;2023-02-16T04:13:21;3.65;;;2.33;;
58097;SDS011;43913;55.940;37.504;2023-02-16T04:15:46;3.42;;;2.13;;
58097;SDS011;43913;55.940;37.504;2023-02-16T04:18:12;3.35;;;1.98;;
58097;SDS011;43913;55.940;37.504;2023-02-16T04:20:38;2.58;;;1.85;;
58097;SDS011;43913;55.940;37.504;2023-02-16T04:23:03;2.53;;;2.03;;
58097;SDS011;43913;55.940;37.504;2023-02-16T04:25:29;2.28;;;2.08;;
58097;SDS011;43913;55.940;37.504;2023-02-16T04:27:55;2.58;;;1.98;;
58097;SDS011;43913;55.940;37.504;2023-02-16T04:30:23;2.58;;;1.85;;
58097;SDS011;43913;55.940;37.504;2023-02-16T04:32:50;3.58;;;1.95;;
58097;SDS011;43913;55.940;37.504;2023-02-16T04:35:16;2.45;;;2.15;;
58097;SDS011;43913;55.940;37.504;2023-02-16T04:37:45;2.65;;;1.90;;
58097;SDS011;43913;55.940;37.504;2023-02-16T04:40:12;2.35;;;1.70;;
58097;SDS011;43913;55.940;37.504;2023-02-16T04:42:39;2.22;;;1.63;;
58097;SDS011;43913;55.940;37.504;2023-02-16T04:45:06;2.50;;;2.10;;
58097;SDS011;43913;55.940;37.504;2023-02-16T04:47:32;3.08;;;2.15;;
58097;SDS011;43913;55.940;37.504;2023-02-16T04:49:58;2.30;;;1.75;;
58097;SDS011;43913;55.940;37.504;2023-02-16T04:52:26;2.58;;;2.03;;
58097;SDS011;43913;55.940;37.504;2023-02-16T04:54:52;1.90;;;1.80;;
58097;SDS011;43913;55.940;37.504;2023-02-16T04:57:17;2.20;;;2.00;;
58097;SDS011;43913;55.940;37.504;2023-02-16T04:59:45;2.13;;;1.88;;
58097;SDS011;43913;55.940;37.504;2023-02-16T05:02:11;2.00;;;1.85;;
58097;SDS011;43913;55.940;37.504;2023-02-16T05:04:36;3.80;;;2.20;;
58097;SDS011;43913;55.940;37.504;2023-02-16T05:07:02;2.83;;;2.08;;
58097;SDS011;43913;55.940;37.504;2023-02-16T05:09:28;4.25;;;2.30;;
58097;SDS011;43913;55.940;37.504;2023-02-16T05:11:53;3.90;;;2.35;;
58097;SDS011;43913;55.940;37.504;2023-02-16T05:14:37;3.25;;;2.72;;
58097;SDS011;43913;55.940;37.504;2023-02-16T05:17:10;5.13;;;3.20;;
58097;SDS011;43913;55.940;37.504;2023-02-16T05:19:44;3.75;;;2.80;;
58097;SDS011;43913;55.940;37.504;2023-02-16T05:22:13;3.85;;;2.65;;
58097;SDS011;43913;55.940;37.504;2023-02-16T05:24:39;3.65;;;2.30;;
58097;SDS011;43913;55.940;37.504;2023-02-16T05:27:06;6.43;;;2.58;;
58097;SDS011;43913;55.940;37.504;2023-02-16T05:29:34;3.28;;;2.40;;
58097;SDS011;43913;55.940;37.504;2023-02-16T05:32:00;4.53;;;2.97;;
58097;SDS011;43913;55.940;37.504;2023-02-16T05:34:26;3.63;;;2.65;;
58097;SDS011;43913;55.940;37.504;2023-02-16T05:36:51;4.60;;;2.28;;
58097;SDS011;43913;55.940;37.504;2023-02-16T05:39:17;2.58;;;2.08;;
58097;SDS011;43913;55.940;37.504;2023-02-16T05:41:43;2.55;;;2.35;;
58097;SDS011;43913;55.940;37.504;2023-02-16T05:44:09;4.05;;;2.38;;
58097;SDS011;43913;55.940;37.504;2023-02-16T05:46:36;3.08;;;2.60;;
58097;SDS011;43913;55.940;37.504;2023-02-16T05:49:03;4.57;;;2.72;;
58097;SDS011;43913;55.940;37.504;2023-02-16T05:51:30;4.63;;;2.65;;
58097;SDS011;43913;55.940;37.504;2023-02-16T05:53:55;4.43;;;2.85;;
58097;SDS011;43913;55.940;37.504;2023-02-16T05:56:21;3.45;;;2.42;;
58097;SDS011;43913;55.940;37.504;2023-02-16T05:58:48;5.45;;;3.40;;
58097;SDS011;43913;55.940;37.504;2023-02-16T06:01:13;3.15;;;2.72;;
58097;SDS011;43913;55.940;37.504;2023-02-16T06:03:39;3.22;;;2.90;;
58097;SDS011;43913;55.940;37.504;2023-02-16T06:06:05;3.47;;;2.50;;
58097;SDS011;43913;55.940;37.504;2023-02-16T06:08:32;3.35;;;2.42;;
58097;SDS011;43913;55.940;37.504;2023-02-16T06:10:58;2.78;;;2.20;;
58097;SDS011;43913;55.940;37.504;2023-02-16T06:13:24;3.00;;;2.70;;
58097;SDS011;43913;55.940;37.504;2023-02-16T06:15:51;3.42;;;2.40;;
58097;SDS011;43913;55.940;37.504;2023-02-16T06:18:18;4.13;;;3.03;;
58097;SDS011;43913;55.940;37.504;2023-02-16T06:20:44;3.05;;;2.35;;
58097;SDS011;43913;55.940;37.504;2023-02-16T06:23:10;2.47;;;2.13;;
58097;SDS011;43913;55.940;37.504;2023-02-16T06:25:37;3.05;;;2.30;;
58097;SDS011;43913;55.940;37.504;2023-02-16T06:28:05;4.63;;;2.63;;
58097;SDS011;43913;55.940;37.504;2023-02-16T06:30:31;5.05;;;2.55;;
58097;SDS011;43913;55.940;37.504;2023-02-16T06:32:57;3.58;;;2.35;;
58097;SDS011;43913;55.940;37.504;2023-02-16T06:35:23;2.88;;;2.38;;
58097;SDS011;43913;55.940;37.504;2023-02-16T06:37:49;2.40;;;2.20;;
58097;SDS011;43913;55.940;37.504;2023-02-16T06:40:16;3.22;;;2.72;;
58097;SDS011;43913;55.940;37.504;2023-02-16T06:42:43;3.22;;;2.50;;
58097;SDS011;43913;55.940;37.504;2023-02-16T06:45:09;6.00;;;2.60;;
58097;SDS011;43913;55.940;37.504;2023-02-16T06:47:35;4.00;;;3.17;;
58097;SDS011;43913;55.940;37.504;2023-02-16T06:50:02;3.75;;;2.55;;
58097;SDS011;43913;55.940;37.504;2023-02-16T06:52:29;3.13;;;2.80;;
58097;SDS011;43913;55.940;37.504;2023-02-16T06:54:54;4.88;;;2.63;;
58097;SDS011;43913;55.940;37.504;2023-02-16T06:57:20;4.18;;;2.38;;
58097;SDS011;43913;55.940;37.504;2023-02-16T06:59:48;3.47;;;2.55;;
58097;SDS011;43913;55.940;37.504;2023-02-16T07:02:14;3.63;;;2.35;;
58097;SDS011;43913;55.940;37.504;2023-02-16T07:04:39;3.05;;;2.58;;
58097;SDS011;43913;55.940;37.504;2023-02-16T07:07:05;5.38;;;3.58;;
58097;SDS011;43913;55.940;37.504;2023-02-16T07:09:31;6.60;;;3.38;;
58097;SDS011;43913;55.940;37.504;2023-02-16T07:11:56;3.75;;;2.97;;
58097;SDS011;43913;55.940;37.504;2023-02-16T07:14:22;6.63;;;2.67;;
58097;SDS011;43913;55.940;37.504;2023-02-16T07:16:51;3.47;;;2.83;;
58097;SDS011;43913;55.940;37.504;2023-02-16T07:19:16;4.18;;;2.95;;
58097;SDS011;43913;55.940;37.504;2023-02-16T07:21:42;2.83;;;2.63;;
58097;SDS011;43913;55.940;37.504;2023-02-16T07:24:08;4.90;;;2.65;;
58097;SDS011;43913;55.940;37.504;2023-02-16T07:26:33;3.30;;;2.58;;
58097;SDS011;43913;55.940;37.504;2023-02-16T07:28:59;3.15;;;2.30;;
58097;SDS011;43913;55.940;37.504;2023-02-16T07:31:25;2.38;;;2.17;;
58097;SDS011;43913;55.940;37.504;2023-02-16T07:33:51;2.50;;;2.30;;
58097;SDS011;43913;55.940;37.504;2023-02-16T07:36:16;2.50;;;2.28;;
58097;SDS011;43913;55.940;37.504;2023-02-16T07:38:42;3.92;;;2.60;;
58097;SDS011;43913;55.940;37.504;2023-02-16T07:41:08;2.55;;;2.33;;
58097;SDS011;43913;55.940;37.504;2023-02-16T07:43:34;2.35;;;2.15;;
58097;SDS011;43913;55.940;37.504;2023-02-16T07:46:00;4.65;;;2.42;;
58097;SDS011;43913;55.940;37.504;2023-02-16T07:48:26;2.28;;;1.80;;
58097;SDS011;43913;55.940;37.504;2023-02-16T07:50:52;3.35;;;2.30;;
58097;SDS011;43913;55.940;37.504;2023-02-16T07:53:17;2.65;;;2.10;;
58097;SDS011;43913;55.940;37.504;2023-02-16T07:55:43;2.40;;;2.20;;
58097;SDS011;43913;55.940;37.504;2023-02-16T07:58:10;2.72;;;2.25;;
58097;SDS011;43913;55.940;37.504;2023-02-16T08:00:36;4.00;;;2.47;;
58097;SDS011;43913;55.940;37.504;2023-02-16T08:03:02;3.25;;;2.70;;
58097;SDS011;43913;55.940;37.504;2023-02-16T08:05:28;2.50;;;2.13;;
58097;SDS011;43913;55.940;37.504;2023-02-16T08:07:54;2.75;;;2.42;;
58097;SDS011;43913;55.940;37.504;2023-02-16T08:10:20;2.78;;;2.30;;
58097;SDS011;43913;55.940;37.504;2023-02-16T08:12:46;3.78;;;2.05;;
58097;SDS011;43913;55.940;37.504;2023-02-16T08:15:13;2.85;;;2.00;;
58097;SDS011;43913;55.940;37.504;2023-02-16T08:17:39;2.50;;;2.22;;
58097;SDS011;43913;55.940;37.504;2023-02-16T08:20:06;2.95;;;1.98;;
58097;SDS011;43913;55.940;37.504;2023-02-16T08:22:34;2.78;;;2.28;;
58097;SDS011;43913;55.940;37.504;2023-02-16T08:25:01;5.07;;;2.08;;
58097;SDS011;43913;55.940;37.504;2023-02-16T08:27:26;2.05;;;1.85;;
58097;SDS011;43913;55.940;37.504;2023-02-16T08:29:52;3.22;;;2.20;;
58097;SDS011;43913;55.940;37.504;2023-02-16T08:32:18;3.13;;;1.80;;
58097;SDS011;43913;55.940;37.504;2023-02-16T08:34:45;2.10;;;1.90;;
58097;SDS011;43913;55.940;37.504;2023-02-16T08:37:11;4.82;;;2.10;;
58097;SDS011;43913;55.940;37.504;2023-02-16T08:39:38;2.25;;;1.60;;
58097;SDS011;43913;55.940;37.504;2023-02-16T08:42:04;1.77;;;1.67;;
58097;SDS011;43913;55.940;37.504;2023-02-16T08:44:30;3.47;;;2.10;;
58097;SDS011;43913;55.940;37.504;2023-02-16T08:46:57;1.80;;;1.70;;
58097;SDS011;43913;55.940;37.504;2023-02-16T08:49:25;2.30;;;2.05;;
58097;SDS011;43913;55.940;37.504;2023-02-16T08:51:53;5.63;;;2.60;;
58097;SDS011;43913;55.940;37.504;2023-02-16T08:54:21;2.25;;;2.05;;
58097;SDS011;43913;55.940;37.504;2023-02-16T08:56:49;2.78;;;2.55;;
58097;SDS011;43913;55.940;37.504;2023-02-16T08:59:16;2.22;;;2.03;;
58097;SDS011;43913;55.940;37.504;2023-02-16T09:01:42;2.63;;;2.25;;
58097;SDS011;43913;55.940;37.504;2023-02-16T09:04:09;2.10;;;1.90;;
58097;SDS011;43913;55.940;37.504;2023-02-16T09:06:36;3.75;;;2.00;;
58097;SDS011;43913;55.940;37.504;2023-02-16T09:09:04;3.28;;;2.08;;
58097;SDS011;43913;55.940;37.504;2023-02-16T09:11:30;4.15;;;2.38;;
58097;SDS011;43913;55.940;37.504;2023-02-16T09:13:56;2.55;;;2.28;;
58097;SDS011;43913;55.940;37.504;2023-02-16T09:16:22;3.70;;;2.25;;
58097;SDS011;43913;55.940;37.504;2023-02-16T09:18:49;2.33;;;2.13;;
58097;SDS011;43913;55.940;37.504;2023-02-16T09:21:17;2.42;;;1.88;;
58097;SDS011;43913;55.940;37.504;2023-02-16T09:23:45;2.97;;;2.13;;
58097;SDS011;43913;55.940;37.504;2023-02-16T09:26:13;2.08;;;1.88;;
58097;SDS011;43913;55.940;37.504;2023-02-16T09:28:43;2.40;;;2.20;;
58097;SDS011;43913;55.940;37.504;2023-02-16T09:31:10;2.35;;;1.98;;
58097;SDS011;43913;55.940;37.504;2023-02-16T09:33:44;2.10;;;1.90;;
58097;SDS011;43913;55.940;37.504;2023-02-16T09:36:11;2.72;;;2.53;;
58097;SDS011;43913;55.940;37.504;2023-02-16T09:38:38;1.88;;;1.75;;
58097;SDS011;43913;55.940;37.504;2023-02-16T09:41:15;3.17;;;1.95;;
58097;SDS011;43913;55.940;37.504;2023-02-16T09:43:52;2.95;;;2.13;;
58097;SDS011;43913;55.940;37.504;2023-02-16T09:46:21;2.30;;;1.88;;
58097;SDS011;43913;55.940;37.504;2023-02-16T09:48:48;2.88;;;1.85;;
58097;SDS011;43913;55.940;37.504;2023-02-16T09:51:22;2.17;;;1.92;;
58097;SDS011;43913;55.940;37.504;2023-02-16T09:53:54;3.17;;;2.55;;
58097;SDS011;43913;55.940;37.504;2023-02-16T09:59:11;2.10;;;1.90;;
58097;SDS011;43913;55.940;37.504;2023-02-16T10:01:42;2.28;;;2.03;;
58097;SDS011;43913;55.940;37.504;2023-02-16T10:10:06;2.00;;;1.85;;
58097;SDS011;43913;55.940;37.504;2023-02-16T10:12:37;9.05;;;2.28;;
58097;SDS011;43913;55.940;37.504;2023-02-16T10:15:06;3.00;;;2.58;;
58097;SDS011;43913;55.940;37.504;2023-02-16T10:17:45;2.58;;;2.10;;
58097;SDS011;43913;55.940;37.504;2023-02-16T10:20:29;4.82;;;2.33;;
58097;SDS011;43913;55.940;37.504;2023-02-16T10:25:46;2.20;;;2.00;;
58097;SDS011;43913;55.940;37.504;2023-02-16T10:28:18;4.60;;;2.40;;
58097;SDS011;43913;55.940;37.504;2023-02-16T10:30:49;2.55;;;2.05;;
58097;SDS011;43913;55.940;37.504;2023-02-16T10:33:34;2.38;;;1.90;;
58097;SDS011;43913;55.940;37.504;2023-02-16T10:36:37;3.70;;;1.80;;
58097;SDS011;43913;55.940;37.504;2023-02-16T10:41:44;1.75;;;1.65;;
58097;SDS011;43913;55.940;37.504;2023-02-16T10:44:28;2.45;;;2.25;;
58097;SDS011;43913;55.940;37.504;2023-02-16T10:46:58;2.30;;;2.10;;
58097;SDS011;43913;55.940;37.504;2023-02-16T10:49:25;4.22;;;2.15;;
58097;SDS011;43913;55.940;37.504;2023-02-16T10:51:51;3.50;;;2.10;;
58097;SDS011;43913;55.940;37.504;2023-02-16T10:54:19;2.83;;;2.03;;
58097;SDS011;43913;55.940;37.504;2023-02-16T10:56:52;4.05;;;2.50;;
58097;SDS011;43913;55.940;37.504;2023-02-16T11:01:51;3.75;;;2.00;;
58097;SDS011;43913;55.940;37.504;2023-02-16T11:07:08;2.15;;;2.03;;
58097;SDS011;43913;55.940;37.504;2023-02-16T11:09:36;2.42;;;2.20;;
58097;SDS011;43913;55.940;37.504;2023-02-16T11:12:12;2.13;;;1.83;;
58097;SDS011;43913;55.940;37.504;2023-02-16T11:14:45;4.35;;;1.83;;
58097;SDS011;43913;55.940;37.504;2023-02-16T11:17:14;2.95;;;2.42;;
58097;SDS011;43913;55.940;37.504;2023-02-16T11:19:49;3.35;;;2.40;;
58097;SDS011;43913;55.940;37.504;2023-02-16T11:22:26;3.50;;;2.50;;
58097;SDS011;43913;55.940;37.504;2023-02-16T11:27:58;2.78;;;2.38;;
58097;SDS011;43913;55.940;37.504;2023-02-16T11:30:40;2.47;;;2.28;;
58097;SDS011;43913;55.940;37.504;2023-02-16T11:33:25;2.97;;;2.25;;
58097;SDS011;43913;55.940;37.504;2023-02-16T11:35:52;2.80;;;2.45;;
58097;SDS011;43913;55.940;37.504;2023-02-16T11:38:31;3.85;;;2.00;;
58097;SDS011;43913;55.940;37.504;2023-02-16T11:41:01;2.58;;;2.30;;
58097;SDS011;43913;55.940;37.504;2023-02-16T11:43:34;3.08;;;1.88;;
58097;SDS011;43913;55.940;37.504;2023-02-16T11:46:02;3.75;;;2.47;;
58097;SDS011;43913;55.940;37.504;2023-02-16T11:48:30;2.90;;;2.63;;
58097;SDS011;43913;55.940;37.504;2023-02-16T11:51:01;3.25;;;2.30;;
58097;SDS011;43913;55.940;37.504;2023-02-16T11:53:31;3.28;;;2.00;;
58097;SDS011;43913;55.940;37.504;2023-02-16T12:21:36;3.55;;;2.40;;
58097;SDS011;43913;55.940;37.504;2023-02-16T12:26:52;2.05;;;1.90;;
58097;SDS011;43913;55.940;37.504;2023-02-16T12:29:34;2.40;;;2.20;;
58097;SDS011;43913;55.940;37.504;2023-02-16T12:43:37;2.38;;;2.17;;
58097;SDS011;43913;55.940;37.504;2023-02-16T12:46:23;5.03;;;2.90;;
58097;SDS011;43913;55.940;37.504;2023-02-16T12:48:54;3.67;;;2.58;;
58097;SDS011;43913;55.940;37.504;2023-02-16T12:51:38;2.40;;;2.20;;
58097;SDS011;43913;55.940;37.504;2023-02-16T12:55:05;3.50;;;2.28;;
58097;SDS011;43913;55.940;37.504;2023-02-16T12:57:20;3.58;;;2.55;;
58097;SDS011;43913;55.940;37.504;2023-02-16T13:06:12;2.35;;;2.15;;
58097;SDS011;43913;55.940;37.504;2023-02-16T13:11:35;3.00;;;2.30;;
58097;SDS011;43913;55.940;37.504;2023-02-16T13:14:05;3.00;;;2.50;;
58097;SDS011;43913;55.940;37.504;2023-02-16T13:16:42;2.50;;;2.30;;
58097;SDS011;43913;55.940;37.504;2023-02-16T13:19:14;2.50;;;2.28;;
58097;SDS011;43913;55.940;37.504;2023-02-16T13:32:40;3.17;;;2.72;;
58097;SDS011;43913;55.940;37.504;2023-02-16T13:35:38;3.88;;;3.15;;
58097;SDS011;43913;55.940;37.504;2023-02-16T13:43:39;3.22;;;2.92;;
58097;SDS011;43913;55.940;37.504;2023-02-16T13:46:12;3.78;;;2.80;;
58097;SDS011;43913;55.940;37.504;2023-02-16T13:48:48;4.15;;;3.05;;
58097;SDS011;43913;55.940;37.504;2023-02-16T13:51:15;2.67;;;2.47;;
58097;SDS011;43913;55.940;37.504;2023-02-16T13:58:52;3.10;;;2.80;;
58097;SDS011;43913;55.940;37.504;2023-02-16T14:03:52;6.85;;;3.65;;
58097;SDS011;43913;55.940;37.504;2023-02-16T14:14:32;5.75;;;3.53;;
58097;SDS011;43913;55.940;37.504;2023-02-16T14:17:29;3.88;;;3.33;;
58097;SDS011;43913;55.940;37.504;2023-02-16T14:20:05;5.40;;;3.35;;
58097;SDS011;43913;55.940;37.504;2023-02-16T14:22:54;5.40;;;3.78;;
58097;SDS011;43913;55.940;37.504;2023-02-16T14:27:54;4.85;;;3.70;;
58097;SDS011;43913;55.940;37.504;2023-02-16T14:41:00;6.05;;;3.85;;
58097;SDS011;43913;55.940;37.504;2023-02-16T14:43:46;5.40;;;3.50;;
58097;SDS011;43913;55.940;37.504;2023-02-16T14:49:03;7.50;;;3.88;;
58097;SDS011;43913;55.940;37.504;2023-02-16T15:04:51;4.40;;;3.83;;
58097;SDS011;43913;55.940;37.504;2023-02-16T15:07:18;5.18;;;3.80;;
58097;SDS011;43913;55.940;37.504;2023-02-16T15:09:46;5.47;;;3.72;;
58097;SDS011;43913;55.940;37.504;2023-02-16T15:12:16;4.55;;;3.95;;
58097;SDS011;43913;55.940;37.504;2023-02-16T15:14:49;5.30;;;4.20;;
58097;SDS011;43913;55.940;37.504;2023-02-16T15:17:24;7.47;;;3.85;;
58097;SDS011;43913;55.940;37.504;2023-02-16T15:20:16;4.90;;;4.00;;
58097;SDS011;43913;55.940;37.504;2023-02-16T15:22:48;5.47;;;4.22;;
58097;SDS011;43913;55.940;37.504;2023-02-16T15:25:36;7.55;;;6.13;;
58097;SDS011;43913;55.940;37.504;2023-02-16T15:35:51;7.18;;;5.70;;
58097;SDS011;43913;55.940;37.504;2023-02-16T15:38:25;6.38;;;4.97;;
58097;SDS011;43913;55.940;37.504;2023-02-16T15:41:02;5.18;;;4.40;;
58097;SDS011;43913;55.940;37.504;2023-02-16T15:46:02;6.38;;;5.65;;
58097;SDS011;43913;55.940;37.504;2023-02-16T15:48:31;5.75;;;4.78;;
58097;SDS011;43913;55.940;37.504;2023-02-16T15:53:59;7.75;;;5.57;;
58097;SDS011;43913;55.940;37.504;2023-02-16T15:56:42;6.63;;;5.40;;
58097;SDS011;43913;55.940;37.504;2023-02-16T15:59:30;6.38;;;4.65;;
58097;SDS011;43913;55.940;37.504;2023-02-16T16:02:03;6.13;;;4.78;;
58097;SDS011;43913;55.940;37.504;2023-02-16T16:04:38;6.60;;;5.00;;
58097;SDS011;43913;55.940;37.504;2023-02-16T16:07:05;7.07;;;5.13;;
58097;SDS011;43913;55.940;37.504;2023-02-16T16:09:32;5.30;;;4.65;;
58097;SDS011;43913;55.940;37.504;2023-02-16T16:12:03;6.03;;;4.82;;
58097;SDS011;43913;55.940;37.504;2023-02-16T16:14:33;6.20;;;4.68;;
58097;SDS011;43913;55.940;37.504;2023-02-16T16:17:01;6.03;;;4.53;;
58097;SDS011;43913;55.940;37.504;2023-02-16T16:19:37;9.73;;;5.35;;
58097;SDS011;43913;55.940;37.504;2023-02-16T16:22:14;6.50;;;4.60;;
58097;SDS011;43913;55.940;37.504;2023-02-16T16:24:55;6.03;;;4.50;;
58097;SDS011;43913;55.940;37.504;2023-02-16T16:27:27;5.43;;;4.35;;
58097;SDS011;43913;55.940;37.504;2023-02-16T16:30:23;6.65;;;4.93;;
58097;SDS011;43913;55.940;37.504;2023-02-16T16:35:47;7.03;;;4.97;;
58097;SDS011;43913;55.940;37.504;2023-02-16T16:38:28;7.22;;;5.90;;
58097;SDS011;43913;55.940;37.504;2023-02-16T16:40:59;7.28;;;5.97;;
58097;SDS011;43913;55.940;37.504;2023-02-16T16:43:28;8.00;;;5.82;;
58097;SDS011;43913;55.940;37.504;2023-02-16T16:45:56;8.63;;;5.95;;
58097;SDS011;43913;55.940;37.504;2023-02-16T16:48:48;7.75;;;6.35;;
58097;SDS011;43913;55.940;37.504;2023-02-16T16:51:17;7.85;;;5.63;;
58097;SDS011;43913;55.940;37.504;2023-02-16T16:56:22;6.72;;;5.80;;
58097;SDS011;43913;55.940;37.504;2023-02-16T16:58:49;7.95;;;6.65;;
58097;SDS011;43913;55.940;37.504;2023-02-16T17:01:15;10.32;;;7.20;;
58097;SDS011;43913;55.940;37.504;2023-02-16T17:03:42;7.18;;;5.93;;
58097;SDS011;43913;55.940;37.504;2023-02-16T17:06:08;7.75;;;6.13;;
58097;SDS011;43913;55.940;37.504;2023-02-16T17:08:38;8.15;;;6.35;;
58097;SDS011;43913;55.940;37.504;2023-02-16T17:11:10;7.40;;;6.10;;
58097;SDS011;43913;55.940;37.504;2023-02-16T17:14:06;8.23;;;6.55;;
58097;SDS011;43913;55.940;37.504;2023-02-16T17:16:47;7.65;;;6.13;;
58097;SDS011;43913;55.940;37.504;2023-02-16T17:19:18;6.75;;;6.00;;
58097;SDS011;43913;55.940;37.504;2023-02-16T17:21:48;7.72;;;6.47;;
58097;SDS011;43913;55.940;37.504;2023-02-16T17:24:14;8.32;;;6.50;;
58097;SDS011;43913;55.940;37.504;2023-02-16T17:26:41;8.38;;;6.05;;
58097;SDS011;43913;55.940;37.504;2023-02-16T17:29:09;7.00;;;6.03;;
58097;SDS011;43913;55.940;37.504;2023-02-16T17:31:35;7.85;;;6.18;;
58097;SDS011;43913;55.940;37.504;2023-02-16T17:34:01;10.23;;;6.38;;
58097;SDS011;43913;55.940;37.504;2023-02-16T17:36:27;7.60;;;6.28;;
58097;SDS011;43913;55.940;37.504;2023-02-16T17:38:52;9.23;;;6.47;;
58097;SDS011;43913;55.940;37.504;2023-02-16T17:41:20;8.27;;;5.75;;
58097;SDS011;43913;55.940;37.504;2023-02-16T17:43:47;8.13;;;6.32;;
58097;SDS011;43913;55.940;37.504;2023-02-16T17:46:14;10.20;;;6.85;;
58097;SDS011;43913;55.940;37.504;2023-02-16T17:48:41;7.88;;;6.60;;